createdAt,value
2022-11-07T00:00:37.050Z,1017.18
2022-11-07T00:01:37.103Z,1017.07
2022-11-07T00:02:37.123Z,1017.22
2022-11-07T00:03:37.035Z,1017.25
2022-11-07T00:04:37.056Z,1017.32
2022-11-07T00:05:37.040Z,1017.38
2022-11-07T00:06:37.048Z,1017.29
2022-11-07T00:07:37.041Z,1017.32
2022-11-07T00:08:37.048Z,1017.32
2022-11-07T00:09:37.061Z,1017.27
2022-11-07T00:10:37.039Z,1017.33
2022-11-07T00:11:37.048Z,1017.45
2022-11-07T00:12:37.051Z,1017.35
2022-11-07T00:13:37.046Z,1017.33
2022-11-07T00:14:37.042Z,1017.29
2022-11-07T00:15:37.045Z,1017.32
2022-11-07T00:16:37.046Z,1017.29
2022-11-07T00:17:37.219Z,1017.27
2022-11-07T00:18:37.048Z,1017.22
2022-11-07T00:19:37.038Z,1017.27
2022-11-07T00:20:37.039Z,1017.4
2022-11-07T00:21:37.044Z,1017.3
2022-11-07T00:22:37.045Z,1017.29
2022-11-07T00:23:37.042Z,1017.3
2022-11-07T00:24:37.041Z,1017.3
2022-11-07T00:25:37.049Z,1017.24
2022-11-07T00:26:37.052Z,1017.26
2022-11-07T00:27:37.132Z,1017.22
2022-11-07T00:28:37.047Z,1017.27
2022-11-07T00:29:37.041Z,1017.19
2022-11-07T00:30:37.039Z,1017.19
2022-11-07T00:31:37.046Z,1017.24
2022-11-07T00:32:37.045Z,1017.33
2022-11-07T00:33:37.046Z,1017.26
2022-11-07T00:34:37.041Z,1017.34
2022-11-07T00:35:37.038Z,1017.35
2022-11-07T00:36:37.046Z,1017.37
2022-11-07T00:37:37.055Z,1017.35
2022-11-07T00:38:37.052Z,1017.34
2022-11-07T00:39:37.033Z,1017.39
2022-11-07T00:40:37.044Z,1017.4
2022-11-07T00:41:37.052Z,1017.45
2022-11-07T00:42:37.047Z,1017.5
2022-11-07T00:43:37.115Z,1017.43
2022-11-07T00:44:37.044Z,1017.47
2022-11-07T00:45:37.130Z,1017.53
2022-11-07T00:46:37.047Z,1017.64
2022-11-07T00:47:37.056Z,1017.55
2022-11-07T00:48:37.055Z,1017.68
2022-11-07T00:49:37.040Z,1017.64
2022-11-07T00:50:37.038Z,1017.69
2022-11-07T00:51:37.041Z,1017.68
2022-11-07T00:52:37.045Z,1017.65
2022-11-07T00:53:37.047Z,1017.64
2022-11-07T00:54:37.043Z,1017.7
2022-11-07T00:55:37.051Z,1017.66
2022-11-07T00:56:37.047Z,1017.66
2022-11-07T00:57:37.079Z,1017.58
2022-11-07T00:58:37.098Z,1017.59
2022-11-07T00:59:37.040Z,1017.52
2022-11-07T01:00:37.049Z,1017.52
2022-11-07T01:01:37.204Z,1017.64
2022-11-07T01:02:37.139Z,1017.7
2022-11-07T01:03:37.070Z,1017.7
2022-11-07T01:04:37.039Z,1017.59
2022-11-07T01:05:37.039Z,1017.6
2022-11-07T01:06:37.052Z,1017.65
2022-11-07T01:07:37.064Z,1017.7
2022-11-07T01:08:37.039Z,1017.64
2022-11-07T01:09:37.067Z,1017.64
2022-11-07T01:10:37.035Z,1017.69
2022-11-07T01:11:37.106Z,1017.75
2022-11-07T01:12:37.049Z,1017.78
2022-11-07T01:13:37.038Z,1017.76
2022-11-07T01:14:37.068Z,1017.76
2022-11-07T01:15:37.035Z,1017.7
2022-11-07T01:16:37.047Z,1017.72
2022-11-07T01:17:37.060Z,1017.84
2022-11-07T01:18:37.076Z,1017.8
2022-11-07T01:19:37.039Z,1017.76
2022-11-07T01:20:37.036Z,1017.7
2022-11-07T01:21:37.049Z,1017.78
2022-11-07T01:22:37.069Z,1017.8
2022-11-07T01:23:37.045Z,1017.73
2022-11-07T01:24:37.065Z,1017.71
2022-11-07T01:25:37.050Z,1017.75
2022-11-07T01:26:37.035Z,1017.67
2022-11-07T01:27:37.054Z,1017.65
2022-11-07T01:28:37.043Z,1017.63
2022-11-07T01:29:37.036Z,1017.73
2022-11-07T01:30:37.041Z,1017.73
2022-11-07T01:31:37.041Z,1017.61
2022-11-07T01:32:37.049Z,1017.6
2022-11-07T01:33:37.059Z,1017.61
2022-11-07T01:34:37.047Z,1017.64
2022-11-07T01:35:37.036Z,1017.68
2022-11-07T01:36:37.049Z,1017.69
2022-11-07T01:37:37.082Z,1017.68
2022-11-07T01:38:37.040Z,1017.69
2022-11-07T01:39:37.058Z,1017.76
2022-11-07T01:40:37.035Z,1017.75
2022-11-07T01:41:37.041Z,1017.73
2022-11-07T01:42:37.058Z,1017.72
2022-11-07T01:43:37.042Z,1017.78
2022-11-07T01:44:37.037Z,1017.77
2022-11-07T01:45:37.047Z,1017.81
2022-11-07T01:46:37.055Z,1017.77
2022-11-07T01:47:37.058Z,1017.76
2022-11-07T01:48:37.065Z,1017.78
2022-11-07T01:49:37.035Z,1017.71
2022-11-07T01:50:37.079Z,1017.83
2022-11-07T01:51:37.039Z,1017.73
2022-11-07T01:52:37.049Z,1017.61
2022-11-07T01:53:37.044Z,1017.64
2022-11-07T01:54:37.048Z,1017.59
2022-11-07T01:55:37.042Z,1017.61
2022-11-07T01:56:37.037Z,1017.6
2022-11-07T01:57:37.057Z,1017.6
2022-11-07T01:58:37.055Z,1017.61
2022-11-07T01:59:37.039Z,1017.59
2022-11-07T02:00:37.064Z,1017.59
2022-11-07T02:01:37.166Z,1017.56
2022-11-07T02:02:37.191Z,1017.56
2022-11-07T02:03:37.055Z,1017.47
2022-11-07T02:04:37.043Z,1017.48
2022-11-07T02:05:37.044Z,1017.46
2022-11-07T02:06:37.047Z,1017.43
2022-11-07T02:07:37.057Z,1017.45
2022-11-07T02:08:37.045Z,1017.45
2022-11-07T02:09:37.046Z,1017.45
2022-11-07T02:10:37.044Z,1017.45
2022-11-07T02:11:37.040Z,1017.33
2022-11-07T02:12:37.060Z,1017.38
2022-11-07T02:13:37.050Z,1017.3
2022-11-07T02:14:37.045Z,1017.29
2022-11-07T02:15:37.053Z,1017.35
2022-11-07T02:16:37.040Z,1017.35
2022-11-07T02:17:37.069Z,1017.43
2022-11-07T02:18:37.073Z,1017.38
2022-11-07T02:19:37.054Z,1017.38
2022-11-07T02:20:37.056Z,1017.43
2022-11-07T02:21:37.040Z,1017.45
2022-11-07T02:22:37.060Z,1017.47
2022-11-07T02:23:37.051Z,1017.41
2022-11-07T02:24:37.054Z,1017.44
2022-11-07T02:25:37.054Z,1017.3
2022-11-07T02:26:37.040Z,1017.31
2022-11-07T02:27:37.070Z,1017.33
2022-11-07T02:28:37.039Z,1017.32
2022-11-07T02:29:37.039Z,1017.26
2022-11-07T02:30:37.057Z,1017.3
2022-11-07T02:31:37.043Z,1017.21
2022-11-07T02:32:37.071Z,1017.29
2022-11-07T02:33:37.060Z,1017.25
2022-11-07T02:34:37.050Z,1017.29
2022-11-07T02:35:37.051Z,1017.27
2022-11-07T02:36:37.052Z,1017.33
2022-11-07T02:37:37.062Z,1017.35
2022-11-07T02:38:37.054Z,1017.34
2022-11-07T02:39:37.056Z,1017.32
2022-11-07T02:40:37.052Z,1017.3
2022-11-07T02:41:37.042Z,1017.37
2022-11-07T02:42:37.053Z,1017.35
2022-11-07T02:43:37.056Z,1017.46
2022-11-07T02:44:37.040Z,1017.43
2022-11-07T02:45:37.080Z,1017.44
2022-11-07T02:46:37.058Z,1017.43
2022-11-07T02:47:37.062Z,1017.45
2022-11-07T02:48:37.067Z,1017.43
2022-11-07T02:49:37.041Z,1017.44
2022-11-07T02:50:37.053Z,1017.58
2022-11-07T02:51:37.040Z,1017.44
2022-11-07T02:52:37.066Z,1017.58
2022-11-07T02:53:37.042Z,1017.41
2022-11-07T02:54:37.045Z,1017.31
2022-11-07T02:55:37.064Z,1017.43
2022-11-07T02:56:37.049Z,1017.38
2022-11-07T02:57:37.069Z,1017.34
2022-11-07T02:58:37.048Z,1017.3
2022-11-07T02:59:37.046Z,1017.23
2022-11-07T03:00:37.054Z,1017.23
2022-11-07T03:01:37.182Z,1017.42
2022-11-07T03:02:37.237Z,1017.32
2022-11-07T03:03:37.062Z,1017.36
2022-11-07T03:04:37.047Z,1017.29
2022-11-07T03:05:37.050Z,1017.38
2022-11-07T03:06:37.045Z,1017.3
2022-11-07T03:07:37.060Z,1017.39
2022-11-07T03:08:37.056Z,1017.39
2022-11-07T03:09:37.044Z,1017.46
2022-11-07T03:10:37.047Z,1017.41
2022-11-07T03:11:37.044Z,1017.48
2022-11-07T03:12:37.054Z,1017.43
2022-11-07T03:13:37.042Z,1017.43
2022-11-07T03:14:37.172Z,1017.46
2022-11-07T03:15:37.071Z,1017.52
2022-11-07T03:16:37.044Z,1017.6
2022-11-07T03:17:37.075Z,1017.57
2022-11-07T03:18:37.064Z,1017.64
2022-11-07T03:19:37.040Z,1017.64
2022-11-07T03:20:37.043Z,1017.67
2022-11-07T03:21:37.044Z,1017.79
2022-11-07T03:22:37.061Z,1017.82
2022-11-07T03:23:37.042Z,1017.66
2022-11-07T03:24:37.042Z,1017.79
2022-11-07T03:25:37.052Z,1017.73
2022-11-07T03:26:37.045Z,1017.65
2022-11-07T03:27:37.065Z,1017.65
2022-11-07T03:28:37.037Z,1017.66
2022-11-07T03:29:37.051Z,1017.81
2022-11-07T03:30:37.038Z,1017.68
2022-11-07T03:31:37.040Z,1017.71
2022-11-07T03:32:37.062Z,1017.64
2022-11-07T03:33:37.080Z,1017.67
2022-11-07T03:34:37.046Z,1017.62
2022-11-07T03:35:37.051Z,1017.8
2022-11-07T03:36:37.052Z,1017.81
2022-11-07T03:37:37.081Z,1017.69
2022-11-07T03:38:37.039Z,1017.71
2022-11-07T03:39:37.037Z,1017.71
2022-11-07T03:40:37.055Z,1017.69
2022-11-07T03:41:37.041Z,1017.7
2022-11-07T03:42:37.068Z,1017.68
2022-11-07T03:43:37.041Z,1017.72
2022-11-07T03:44:37.048Z,1017.7
2022-11-07T03:45:37.041Z,1017.77
2022-11-07T03:46:37.041Z,1017.79
2022-11-07T03:47:37.064Z,1017.9
2022-11-07T03:48:37.065Z,1017.88
2022-11-07T03:49:37.046Z,1017.86
2022-11-07T03:50:37.050Z,1017.8
2022-11-07T03:51:37.044Z,1017.76
2022-11-07T03:52:37.053Z,1017.76
2022-11-07T03:53:37.141Z,1017.71
2022-11-07T03:54:37.042Z,1017.72
2022-11-07T03:55:37.058Z,1017.72
2022-11-07T03:56:37.046Z,1017.8
2022-11-07T03:57:37.056Z,1017.77
2022-11-07T03:58:37.044Z,1017.76
2022-11-07T03:59:37.042Z,1017.79
2022-11-07T04:00:37.043Z,1017.79
2022-11-07T04:01:37.194Z,1017.81
2022-11-07T04:02:37.254Z,1017.85
2022-11-07T04:03:37.055Z,1018.04
2022-11-07T04:04:37.050Z,1017.91
2022-11-07T04:05:37.038Z,1017.93
2022-11-07T04:06:37.064Z,1017.91
2022-11-07T04:07:37.064Z,1017.89
2022-11-07T04:08:37.043Z,1017.89
2022-11-07T04:09:37.053Z,1017.89
2022-11-07T04:10:37.054Z,1017.94
2022-11-07T04:11:37.055Z,1017.93
2022-11-07T04:12:37.051Z,1017.92
2022-11-07T04:13:37.050Z,1017.86
2022-11-07T04:14:37.053Z,1017.81
2022-11-07T04:15:37.041Z,1017.83
2022-11-07T04:16:37.066Z,1017.75
2022-11-07T04:17:37.066Z,1017.85
2022-11-07T04:18:37.063Z,1017.82
2022-11-07T04:19:37.048Z,1017.83
2022-11-07T04:20:37.053Z,1017.76
2022-11-07T04:21:37.044Z,1017.83
2022-11-07T04:22:37.049Z,1017.86
2022-11-07T04:23:37.045Z,1017.89
2022-11-07T04:24:40.300Z,1017.96
2022-11-07T04:25:37.045Z,1017.83
2022-11-07T04:26:37.049Z,1017.87
2022-11-07T04:27:37.064Z,1017.82
2022-11-07T04:28:37.044Z,1017.8
2022-11-07T04:29:37.047Z,1017.81
2022-11-07T04:30:37.040Z,1017.83
2022-11-07T04:31:37.038Z,1017.98
2022-11-07T04:32:37.066Z,1017.8
2022-11-07T04:33:37.056Z,1017.93
2022-11-07T04:34:37.048Z,1017.87
2022-11-07T04:35:37.051Z,1017.87
2022-11-07T04:36:37.047Z,1017.9
2022-11-07T04:37:37.109Z,1017.86
2022-11-07T04:38:37.038Z,1017.91
2022-11-07T04:39:37.051Z,1017.96
2022-11-07T04:40:37.044Z,1017.9
2022-11-07T04:41:37.039Z,1017.89
2022-11-07T04:42:37.059Z,1017.96
2022-11-07T04:43:37.037Z,1018.01
2022-11-07T04:44:37.044Z,1018.01
2022-11-07T04:45:37.048Z,1017.99
2022-11-07T04:46:37.043Z,1018
2022-11-07T04:47:40.449Z,1018.01
2022-11-07T04:48:37.065Z,1017.93
2022-11-07T04:49:37.041Z,1017.95
2022-11-07T04:50:37.041Z,1017.98
2022-11-07T04:51:37.039Z,1017.98
2022-11-07T04:52:37.074Z,1017.93
2022-11-07T04:53:37.041Z,1017.96
2022-11-07T04:54:37.048Z,1017.96
2022-11-07T04:55:37.061Z,1018.03
2022-11-07T04:56:37.041Z,1017.94
2022-11-07T04:57:37.062Z,1017.9
2022-11-07T04:58:37.045Z,1017.85
2022-11-07T04:59:37.039Z,1017.89
2022-11-07T05:00:37.053Z,1017.89
2022-11-07T05:01:37.086Z,1017.81
2022-11-07T05:02:37.101Z,1017.81
2022-11-07T05:03:41.551Z,1017.82
2022-11-07T05:04:37.051Z,1017.91
2022-11-07T05:05:37.042Z,1017.94
2022-11-07T05:06:37.050Z,1017.96
2022-11-07T05:07:37.061Z,1018.02
2022-11-07T05:08:37.053Z,1018.02
2022-11-07T05:09:37.055Z,1018.02
2022-11-07T05:10:37.041Z,1018.04
2022-11-07T05:11:37.046Z,1018.05
2022-11-07T05:12:37.052Z,1018.09
2022-11-07T05:13:37.046Z,1018.14
2022-11-07T05:14:37.058Z,1018.12
2022-11-07T05:15:37.056Z,1018.12
2022-11-07T05:16:37.044Z,1018.1
2022-11-07T05:17:37.062Z,1018.24
2022-11-07T05:18:37.068Z,1018.23
2022-11-07T05:19:37.044Z,1018.24
2022-11-07T05:20:37.036Z,1018.27
2022-11-07T05:21:37.041Z,1018.28
2022-11-07T05:22:37.068Z,1018.23
2022-11-07T05:23:37.047Z,1018.18
2022-11-07T05:24:37.044Z,1018.18
2022-11-07T05:25:37.050Z,1018.18
2022-11-07T05:26:37.042Z,1018.24
2022-11-07T05:27:37.067Z,1018.24
2022-11-07T05:28:39.073Z,1018.22
2022-11-07T05:29:37.043Z,1018.23
2022-11-07T05:30:37.139Z,1018.24
2022-11-07T05:31:37.055Z,1018.32
2022-11-07T05:32:37.049Z,1018.3
2022-11-07T05:33:37.103Z,1018.23
2022-11-07T05:34:37.043Z,1018.32
2022-11-07T05:35:37.045Z,1018.32
2022-11-07T05:36:37.057Z,1018.28
2022-11-07T05:37:37.058Z,1018.27
2022-11-07T05:38:37.045Z,1018.37
2022-11-07T05:39:37.048Z,1018.5
2022-11-07T05:40:37.055Z,1018.57
2022-11-07T05:41:37.049Z,1018.42
2022-11-07T05:42:37.050Z,1018.37
2022-11-07T05:43:37.045Z,1018.35
2022-11-07T05:44:37.054Z,1018.35
2022-11-07T05:45:37.040Z,1018.45
2022-11-07T05:46:37.038Z,1018.45
2022-11-07T05:47:37.060Z,1018.47
2022-11-07T05:48:37.080Z,1018.48
2022-11-07T05:49:37.053Z,1018.38
2022-11-07T05:50:37.060Z,1018.46
2022-11-07T05:51:37.051Z,1018.55
2022-11-07T05:52:37.085Z,1018.5
2022-11-07T05:53:37.139Z,1018.57
2022-11-07T05:54:37.052Z,1018.65
2022-11-07T05:55:37.040Z,1018.59
2022-11-07T05:56:37.112Z,1018.63
2022-11-07T05:57:37.054Z,1018.72
2022-11-07T05:58:37.057Z,1018.68
2022-11-07T05:59:37.053Z,1018.69
2022-11-07T06:00:37.038Z,1018.8
2022-11-07T06:01:37.165Z,1018.8
2022-11-07T06:02:37.132Z,1018.69
2022-11-07T06:03:37.058Z,1018.78
2022-11-07T06:04:37.042Z,1018.83
2022-11-07T06:05:37.037Z,1018.83
2022-11-07T06:06:37.041Z,1018.8
2022-11-07T06:07:37.060Z,1018.83
2022-11-07T06:08:37.036Z,1018.89
2022-11-07T06:09:37.069Z,1018.89
2022-11-07T06:10:37.041Z,1018.95
2022-11-07T06:11:37.090Z,1019.02
2022-11-07T06:12:37.053Z,1018.86
2022-11-07T06:13:37.039Z,1018.82
2022-11-07T06:14:37.043Z,1018.79
2022-11-07T06:15:37.043Z,1018.89
2022-11-07T06:16:37.047Z,1018.87
2022-11-07T06:17:37.054Z,1018.93
2022-11-07T06:18:41.380Z,1018.94
2022-11-07T06:19:37.051Z,1018.95
2022-11-07T06:20:37.037Z,1019.07
2022-11-07T06:21:37.038Z,1019.12
2022-11-07T06:22:37.047Z,1019.15
2022-11-07T06:23:37.045Z,1019.1
2022-11-07T06:24:37.045Z,1019.17
2022-11-07T06:25:37.050Z,1019.21
2022-11-07T06:26:37.047Z,1019.18
2022-11-07T06:27:37.060Z,1019.19
2022-11-07T06:28:37.049Z,1019.22
2022-11-07T06:29:37.043Z,1019.21
2022-11-07T06:30:37.048Z,1019.16
2022-11-07T06:31:37.040Z,1019.21
2022-11-07T06:32:37.051Z,1019.18
2022-11-07T06:33:37.045Z,1019.13
2022-11-07T06:34:37.050Z,1019.16
2022-11-07T06:35:37.046Z,1019.15
2022-11-07T06:36:37.040Z,1019.2
2022-11-07T06:37:37.057Z,1019.18
2022-11-07T06:38:37.048Z,1019.2
2022-11-07T06:39:37.043Z,1019.16
2022-11-07T06:40:37.038Z,1019.22
2022-11-07T06:41:37.042Z,1019.16
2022-11-07T06:42:37.052Z,1019.19
2022-11-07T06:43:37.041Z,1019.11
2022-11-07T06:44:37.043Z,1019.16
2022-11-07T06:45:37.044Z,1019.15
2022-11-07T06:46:37.043Z,1019.13
2022-11-07T06:47:37.058Z,1019.1
2022-11-07T06:48:37.103Z,1019.11
2022-11-07T06:49:37.063Z,1019.12
2022-11-07T06:50:37.052Z,1019.16
2022-11-07T06:51:37.050Z,1019.1
2022-11-07T06:52:37.058Z,1019.07
2022-11-07T06:53:37.043Z,1019.11
2022-11-07T06:54:37.042Z,1019.09
2022-11-07T06:55:37.045Z,1019.17
2022-11-07T06:56:37.046Z,1019.13
2022-11-07T06:57:37.070Z,1019.15
2022-11-07T06:58:37.055Z,1019.19
2022-11-07T06:59:37.052Z,1019.24
2022-11-07T07:00:37.210Z,1019.15
2022-11-07T07:01:37.192Z,1019.15
2022-11-07T07:02:57.458Z,1019.13
2022-11-07T07:03:37.055Z,1019.13
2022-11-07T07:04:37.055Z,1019.09
2022-11-07T07:05:37.056Z,1019.12
2022-11-07T07:06:37.054Z,1019.1
2022-11-07T07:07:37.076Z,1019.18
2022-11-07T07:08:37.042Z,1019.28
2022-11-07T07:09:37.037Z,1019.28
2022-11-07T07:10:37.040Z,1019.25
2022-11-07T07:11:37.035Z,1019.19
2022-11-07T07:12:37.060Z,1019.2
2022-11-07T07:13:37.043Z,1019.21
2022-11-07T07:14:37.039Z,1019.23
2022-11-07T07:15:49.828Z,1019.18
2022-11-07T07:16:37.058Z,1019.17
2022-11-07T07:17:37.079Z,1019.15
2022-11-07T07:18:37.047Z,1019.07
2022-11-07T07:19:37.082Z,1019.05
2022-11-07T07:20:37.038Z,1019.06
2022-11-07T07:21:37.039Z,1019.06
2022-11-07T07:22:37.062Z,1019.04
2022-11-07T07:23:37.048Z,1019.1
2022-11-07T07:24:37.039Z,1019.08
2022-11-07T07:25:37.045Z,1019.05
2022-11-07T07:26:37.048Z,1019.06
2022-11-07T07:27:37.054Z,1019.07
2022-11-07T07:28:37.045Z,1019.03
2022-11-07T07:29:37.059Z,1019.06
2022-11-07T07:30:37.072Z,1019.04
2022-11-07T07:31:37.039Z,1019.04
2022-11-07T07:32:37.054Z,1019
2022-11-07T07:33:37.052Z,1018.97
2022-11-07T07:34:37.062Z,1019.01
2022-11-07T07:35:37.049Z,1019.02
2022-11-07T07:36:37.053Z,1019
2022-11-07T07:37:37.059Z,1019
2022-11-07T07:38:37.047Z,1019.02
2022-11-07T07:39:37.049Z,1019.02
2022-11-07T07:40:37.038Z,1019.04
2022-11-07T07:41:40.224Z,1019.03
2022-11-07T07:42:37.055Z,1019.02
2022-11-07T07:43:37.048Z,1019.04
2022-11-07T07:44:37.047Z,1019.09
2022-11-07T07:45:37.049Z,1019.09
2022-11-07T07:46:37.044Z,1019.18
2022-11-07T07:47:37.058Z,1019.17
2022-11-07T07:48:37.066Z,1019.16
2022-11-07T07:49:37.062Z,1019.19
2022-11-07T07:50:37.058Z,1019.22
2022-11-07T07:51:37.051Z,1019.22
2022-11-07T07:52:37.052Z,1019.28
2022-11-07T07:53:37.045Z,1019.26
2022-11-07T07:54:37.040Z,1019.31
2022-11-07T07:55:37.046Z,1019.35
2022-11-07T07:56:37.058Z,1019.32
2022-11-07T07:57:37.055Z,1019.42
2022-11-07T07:58:37.037Z,1019.43
2022-11-07T07:59:37.112Z,1019.35
2022-11-07T08:00:37.089Z,1019.34
2022-11-07T08:01:37.255Z,1019.4
2022-11-07T08:02:37.102Z,1019.35
2022-11-07T08:03:59.788Z,1019.39
2022-11-07T08:04:37.054Z,1019.4
2022-11-07T08:05:37.045Z,1019.41
2022-11-07T08:06:37.043Z,1019.34
2022-11-07T08:07:37.056Z,1019.33
2022-11-07T08:08:38.409Z,1019.38
2022-11-07T08:09:37.048Z,1019.38
2022-11-07T08:10:42.807Z,1019.42
2022-11-07T08:11:37.052Z,1019.44
2022-11-07T08:12:37.059Z,1019.57
2022-11-07T08:13:37.045Z,1019.55
2022-11-07T08:14:37.047Z,1019.54
2022-11-07T08:15:37.046Z,1019.49
2022-11-07T08:16:37.055Z,1019.51
2022-11-07T08:17:37.072Z,1019.59
2022-11-07T08:18:37.038Z,1019.59
2022-11-07T08:19:37.076Z,1019.62
2022-11-07T08:20:37.042Z,1019.59
2022-11-07T08:21:37.040Z,1019.62
2022-11-07T08:22:37.052Z,1019.56
2022-11-07T08:23:37.044Z,1019.52
2022-11-07T08:24:37.060Z,1019.56
2022-11-07T08:25:37.133Z,1019.62
2022-11-07T08:26:37.041Z,1019.59
2022-11-07T08:27:37.078Z,1019.63
2022-11-07T08:28:37.044Z,1019.63
2022-11-07T08:29:37.054Z,1019.59
2022-11-07T08:30:37.052Z,1019.69
2022-11-07T08:31:37.043Z,1019.73
2022-11-07T08:32:37.054Z,1019.68
2022-11-07T08:33:37.098Z,1019.63
2022-11-07T08:34:37.066Z,1019.66
2022-11-07T08:35:42.274Z,1019.64
2022-11-07T08:36:37.042Z,1019.67
2022-11-07T08:37:37.070Z,1019.65
2022-11-07T08:38:37.058Z,1019.69
2022-11-07T08:39:37.038Z,1019.63
2022-11-07T08:40:37.049Z,1019.65
2022-11-07T08:41:37.044Z,1019.69
2022-11-07T08:42:37.050Z,1019.71
2022-11-07T08:43:37.048Z,1019.73
2022-11-07T08:44:37.056Z,1019.78
2022-11-07T08:45:37.054Z,1019.68
2022-11-07T08:46:37.048Z,1019.66
2022-11-07T08:47:37.065Z,1019.66
2022-11-07T08:48:37.054Z,1019.68
2022-11-07T08:49:37.056Z,1019.7
2022-11-07T08:50:37.064Z,1019.65
2022-11-07T08:51:38.892Z,1019.71
2022-11-07T08:52:37.102Z,1019.7
2022-11-07T08:53:37.041Z,1019.74
2022-11-07T08:54:37.043Z,1019.74
2022-11-07T08:55:37.051Z,1019.73
2022-11-07T08:56:37.056Z,1019.7
2022-11-07T08:57:37.055Z,1019.74
2022-11-07T08:58:37.052Z,1019.7
2022-11-07T08:59:37.041Z,1019.73
2022-11-07T09:00:37.097Z,1019.73
2022-11-07T09:01:56.136Z,1019.66
2022-11-07T09:03:47.454Z,1019.73
2022-11-07T09:04:37.101Z,1019.71
2022-11-07T09:05:37.053Z,1019.73
2022-11-07T09:06:37.046Z,1019.79
2022-11-07T09:07:37.102Z,1019.79
2022-11-07T09:08:37.043Z,1019.85
2022-11-07T09:09:37.043Z,1019.85
2022-11-07T09:10:37.050Z,1019.81
2022-11-07T09:11:37.053Z,1019.81
2022-11-07T09:12:37.123Z,1019.79
2022-11-07T09:13:37.049Z,1019.82
2022-11-07T09:14:37.043Z,1019.72
2022-11-07T09:15:37.104Z,1019.76
2022-11-07T09:16:37.045Z,1019.7
2022-11-07T09:17:37.067Z,1019.73
2022-11-07T09:18:37.053Z,1019.73
2022-11-07T09:19:37.065Z,1019.69
2022-11-07T09:20:37.096Z,1019.78
2022-11-07T09:21:37.050Z,1019.82
2022-11-07T09:22:37.054Z,1019.81
2022-11-07T09:23:37.103Z,1019.78
2022-11-07T09:24:37.041Z,1019.93
2022-11-07T09:25:37.050Z,1019.8
2022-11-07T09:26:37.069Z,1019.87
2022-11-07T09:27:37.066Z,1019.82
2022-11-07T09:28:37.059Z,1019.77
2022-11-07T09:29:37.055Z,1019.92
2022-11-07T09:30:37.041Z,1019.79
2022-11-07T09:31:37.057Z,1019.93
2022-11-07T09:32:44.339Z,1019.93
2022-11-07T09:33:37.044Z,1019.87
2022-11-07T09:34:37.057Z,1019.94
2022-11-07T09:35:37.046Z,1019.87
2022-11-07T09:36:37.053Z,1019.77
2022-11-07T09:37:37.061Z,1019.79
2022-11-07T09:38:37.056Z,1019.78
2022-11-07T09:39:37.052Z,1019.78
2022-11-07T09:40:37.055Z,1019.74
2022-11-07T09:41:37.044Z,1019.8
2022-11-07T09:42:37.064Z,1019.85
2022-11-07T09:43:37.044Z,1019.82
2022-11-07T09:44:37.704Z,1019.76
2022-11-07T09:45:37.059Z,1019.76
2022-11-07T09:46:37.089Z,1019.78
2022-11-07T09:47:37.068Z,1019.82
2022-11-07T09:48:37.041Z,1019.85
2022-11-07T09:49:37.068Z,1019.88
2022-11-07T09:50:37.049Z,1019.97
2022-11-07T09:51:37.049Z,1019.92
2022-11-07T09:52:37.054Z,1019.93
2022-11-07T09:53:37.044Z,1019.8
2022-11-07T09:54:37.042Z,1019.9
2022-11-07T09:55:37.051Z,1019.98
2022-11-07T09:56:37.041Z,1019.85
2022-11-07T09:57:37.080Z,1019.82
2022-11-07T09:58:37.049Z,1019.86
2022-11-07T09:59:37.048Z,1019.78
2022-11-07T10:00:37.065Z,1019.78
2022-11-07T10:01:37.184Z,1019.78
2022-11-07T10:02:37.057Z,1019.8
2022-11-07T10:03:37.049Z,1019.81
2022-11-07T10:04:37.060Z,1019.79
2022-11-07T10:05:37.046Z,1019.8
2022-11-07T10:06:37.042Z,1019.82
2022-11-07T10:07:37.074Z,1019.84
2022-11-07T10:08:37.049Z,1019.89
2022-11-07T10:09:37.107Z,1019.89
2022-11-07T10:10:37.042Z,1019.81
2022-11-07T10:11:37.046Z,1019.9
2022-11-07T10:12:41.788Z,1019.91
2022-11-07T10:13:37.046Z,1019.9
2022-11-07T10:14:37.066Z,1019.94
2022-11-07T10:15:37.055Z,1019.91
2022-11-07T10:16:37.049Z,1019.88
2022-11-07T10:17:37.058Z,1019.85
2022-11-07T10:18:37.039Z,1019.87
2022-11-07T10:19:37.064Z,1019.89
2022-11-07T10:20:37.048Z,1019.78
2022-11-07T10:21:38.455Z,1019.78
2022-11-07T10:22:37.052Z,1019.84
2022-11-07T10:23:37.045Z,1019.77
2022-11-07T10:24:37.048Z,1019.81
2022-11-07T10:25:37.061Z,1019.8
2022-11-07T10:26:37.052Z,1019.76
2022-11-07T10:27:37.050Z,1019.73
2022-11-07T10:28:37.049Z,1019.77
2022-11-07T10:29:41.763Z,1019.7
2022-11-07T10:30:37.043Z,1019.84
2022-11-07T10:31:37.051Z,1019.69
2022-11-07T10:32:37.055Z,1019.65
2022-11-07T10:33:37.038Z,1019.64
2022-11-07T10:34:37.056Z,1019.62
2022-11-07T10:35:37.044Z,1019.58
2022-11-07T10:36:37.139Z,1019.57
2022-11-07T10:37:37.059Z,1019.52
2022-11-07T10:38:37.049Z,1019.52
2022-11-07T10:39:37.050Z,1019.57
2022-11-07T10:40:37.047Z,1019.55
2022-11-07T10:41:37.047Z,1019.55
2022-11-07T10:42:37.056Z,1019.54
2022-11-07T10:43:37.052Z,1019.44
2022-11-07T10:44:37.042Z,1019.44
2022-11-07T10:45:37.043Z,1019.45
2022-11-07T10:46:37.043Z,1019.42
2022-11-07T10:47:37.060Z,1019.42
2022-11-07T10:48:37.048Z,1019.42
2022-11-07T10:49:37.057Z,1019.42
2022-11-07T10:50:37.042Z,1019.38
2022-11-07T10:51:37.108Z,1019.36
2022-11-07T10:52:37.232Z,1019.39
2022-11-07T10:53:37.047Z,1019.35
2022-11-07T10:54:37.038Z,1019.36
2022-11-07T10:55:37.041Z,1019.35
2022-11-07T10:56:37.053Z,1019.39
2022-11-07T10:57:37.059Z,1019.32
2022-11-07T10:58:37.042Z,1019.27
2022-11-07T10:59:37.201Z,1019.27
2022-11-07T11:00:37.118Z,1019.33
2022-11-07T11:01:37.260Z,1019.34
2022-11-07T11:02:37.082Z,1019.29
2022-11-07T11:03:44.180Z,1019.31
2022-11-07T11:04:37.067Z,1019.36
2022-11-07T11:05:37.042Z,1019.26
2022-11-07T11:06:37.038Z,1019.31
2022-11-07T11:07:37.058Z,1019.29
2022-11-07T11:08:37.046Z,1019.39
2022-11-07T11:09:37.038Z,1019.39
2022-11-07T11:10:37.055Z,1019.31
2022-11-07T11:11:37.077Z,1019.29
2022-11-07T11:12:37.059Z,1019.32
2022-11-07T11:13:37.043Z,1019.36
2022-11-07T11:14:37.043Z,1019.3
2022-11-07T11:15:37.059Z,1019.27
2022-11-07T11:16:37.061Z,1019.27
2022-11-07T11:17:37.055Z,1019.36
2022-11-07T11:18:37.045Z,1019.26
2022-11-07T11:19:37.063Z,1019.29
2022-11-07T11:20:37.049Z,1019.33
2022-11-07T11:21:37.045Z,1019.27
2022-11-07T11:22:37.053Z,1019.34
2022-11-07T11:23:37.042Z,1019.39
2022-11-07T11:24:37.051Z,1019.31
2022-11-07T11:25:37.054Z,1019.35
2022-11-07T11:26:37.040Z,1019.25
2022-11-07T11:27:37.056Z,1019.16
2022-11-07T11:28:37.041Z,1019.33
2022-11-07T11:29:39.483Z,1019.38
2022-11-07T11:30:37.043Z,1019.29
2022-11-07T11:31:37.053Z,1019.35
2022-11-07T11:32:37.058Z,1019.31
2022-11-07T11:33:37.050Z,1019.16
2022-11-07T11:34:37.056Z,1019.31
2022-11-07T11:35:41.688Z,1019.26
2022-11-07T11:36:37.052Z,1019.31
2022-11-07T11:37:37.063Z,1019.34
2022-11-07T11:38:37.042Z,1019.31
2022-11-07T11:39:37.045Z,1019.28
2022-11-07T11:40:37.045Z,1019.21
2022-11-07T11:41:37.158Z,1019.3
2022-11-07T11:42:37.058Z,1019.21
2022-11-07T11:43:37.089Z,1019.26
2022-11-07T11:44:37.054Z,1019.25
2022-11-07T11:45:37.037Z,1019.33
2022-11-07T11:46:37.160Z,1019.33
2022-11-07T11:47:37.059Z,1019.29
2022-11-07T11:48:37.043Z,1019.26
2022-11-07T11:49:37.155Z,1019.28
2022-11-07T11:50:37.048Z,1019.23
2022-11-07T11:51:37.043Z,1019.23
2022-11-07T11:52:37.056Z,1019.17
2022-11-07T11:53:37.043Z,1019.21
2022-11-07T11:54:37.052Z,1019.09
2022-11-07T11:55:37.046Z,1019.1
2022-11-07T11:56:37.054Z,1019.2
2022-11-07T11:57:37.058Z,1019.13
2022-11-07T11:58:37.055Z,1019.06
2022-11-07T11:59:37.052Z,1019.23
2022-11-07T12:00:37.043Z,1019.1
2022-11-07T12:01:37.042Z,1019.1
2022-11-07T12:02:37.133Z,1019.03
2022-11-07T12:03:37.045Z,1019.15
2022-11-07T12:04:37.058Z,1019.19
2022-11-07T12:05:37.045Z,1019.1
2022-11-07T12:06:37.053Z,1019.09
2022-11-07T12:07:37.045Z,1019.12
2022-11-07T12:08:37.042Z,1019.17
2022-11-07T12:09:37.041Z,1019.17